Time;durP1;ratioP1;P1;durP2;ratioP2;P2;SDS_P1;SDS_P2;PMS_P1;PMS_P2;Temp;Humidity;BMP_temperature;BMP_pressure;BME280_temperature;BME280_humidity;BME280_pressure;Samples;Min_cycle;Max_cycle;Signal;HPM_P1;HPM_P2
2022/09/11 00:00:38;;;;;;;2.38;0.95;;;;;;;;;;5048635;28;20024;-83
2022/09/11 00:03:04;;;;;;;2.67;0.98;;;;;;;;;;5031243;28;20025;-82
2022/09/11 00:05:30;;;;;;;1.30;1.00;;;;;;;;;;5045428;28;20079;-82
2022/09/11 00:07:55;;;;;;;3.33;1.02;;;;;;;;;;5047824;28;20037;-82
2022/09/11 00:10:23;;;;;;;1.33;1.23;;;;;;;;;;5028536;28;20033;-83
2022/09/11 00:12:49;;;;;;;2.05;1.10;;;;;;;;;;5029116;28;20036;-82
2022/09/11 00:15:14;;;;;;;1.48;0.93;;;;;;;;;;5044761;28;20029;-82
2022/09/11 00:17:39;;;;;;;4.28;1.38;;;;;;;;;;5048521;28;20501;-82
2022/09/11 00:20:05;;;;;;;1.80;0.98;;;;;;;;;;5025460;28;20028;-82
2022/09/11 00:22:30;;;;;;;0.80;0.80;;;;;;;;;;5044015;28;20035;-82
2022/09/11 00:24:57;;;;;;;2.75;1.23;;;;;;;;;;5035133;28;20123;-82
2022/09/11 00:27:23;;;;;;;3.85;1.00;;;;;;;;;;5044912;28;20649;-80
2022/09/11 00:29:48;;;;;;;3.80;1.30;;;;;;;;;;5051460;28;20039;-81
2022/09/11 00:32:14;;;;;;;2.67;1.10;;;;;;;;;;5028523;28;20067;-80
2022/09/11 00:34:40;;;;;;;2.30;1.30;;;;;;;;;;5044107;28;20021;-81
2022/09/11 00:37:05;;;;;;;3.72;1.20;;;;;;;;;;5041899;28;20388;-80
2022/09/11 00:39:31;;;;;;;4.75;1.30;;;;;;;;;;5038335;28;20029;-81
2022/09/11 00:41:57;;;;;;;2.95;1.30;;;;;;;;;;5041361;28;20040;-81
2022/09/11 00:44:22;;;;;;;1.13;1.05;;;;;;;;;;5049224;28;20028;-80
2022/09/11 00:46:52;;;;;;;2.88;1.45;;;;;;;;;;5044859;28;20033;-80
2022/09/11 00:49:38;;;;;;;1.77;1.23;;;;;;;;;;5048461;28;20017;-80
2022/09/11 00:52:09;;;;;;;3.78;1.17;;;;;;;;;;5055351;28;20013;-80
2022/09/11 00:54:42;;;;;;;4.18;1.17;;;;;;;;;;5029155;28;20104;-80
2022/09/11 00:57:08;;;;;;;1.60;1.35;;;;;;;;;;5042850;28;20020;-80
2022/09/11 00:59:36;;;;;;;1.15;1.08;;;;;;;;;;5044753;28;20044;-81
2022/09/11 01:02:01;;;;;;;2.35;1.10;;;;;;;;;;5036244;28;20033;-81
2022/09/11 01:04:28;;;;;;;1.23;1.13;;;;;;;;;;5035888;28;20029;-79
2022/09/11 01:06:56;;;;;;;2.10;1.10;;;;;;;;;;5039986;28;20063;-80
2022/09/11 01:09:24;;;;;;;1.65;1.13;;;;;;;;;;5038193;28;20411;-80
2022/09/11 01:11:56;;;;;;;1.10;0.95;;;;;;;;;;5043393;28;20398;-80
2022/09/11 01:14:33;;;;;;;1.35;1.20;;;;;;;;;;5041615;28;20025;-80
2022/09/11 01:17:27;;;;;;;2.63;1.23;;;;;;;;;;5036499;28;20515;-82
2022/09/11 01:20:21;;;;;;;5.50;1.02;;;;;;;;;;5027691;28;20025;-80
2022/09/11 01:22:55;;;;;;;2.88;1.58;;;;;;;;;;5046062;28;20036;-81
2022/09/11 01:25:35;;;;;;;1.38;1.20;;;;;;;;;;5038041;28;20040;-81
2022/09/11 01:28:09;;;;;;;2.40;1.10;;;;;;;;;;5016775;28;20036;-80
2022/09/11 01:30:40;;;;;;;1.13;1.13;;;;;;;;;;5038469;28;20518;-80
2022/09/11 01:33:27;;;;;;;3.15;1.23;;;;;;;;;;5040099;28;20159;-81
2022/09/11 01:36:02;;;;;;;4.72;1.52;;;;;;;;;;5017870;28;20290;-81
2022/09/11 01:38:45;;;;;;;1.52;1.17;;;;;;;;;;5036850;28;20047;-81
2022/09/11 01:41:29;;;;;;;5.07;1.63;;;;;;;;;;5038737;28;20021;-81
2022/09/11 01:44:01;;;;;;;1.10;1.10;;;;;;;;;;5014623;28;20025;-80
2022/09/11 01:46:27;;;;;;;1.33;1.23;;;;;;;;;;5037224;28;20029;-81
2022/09/11 01:49:00;;;;;;;3.85;1.40;;;;;;;;;;5037400;28;20033;-81
2022/09/11 01:51:28;;;;;;;5.45;1.20;;;;;;;;;;5019517;28;20072;-81
2022/09/11 01:53:58;;;;;;;1.42;1.33;;;;;;;;;;5039755;28;20017;-81
2022/09/11 01:56:31;;;;;;;1.60;1.30;;;;;;;;;;5015559;28;20033;-81
2022/09/11 01:59:00;;;;;;;2.28;1.25;;;;;;;;;;5042177;28;20025;-81
2022/09/11 02:01:35;;;;;;;2.72;1.40;;;;;;;;;;5045610;28;20025;-80
2022/09/11 02:04:06;;;;;;;1.50;1.40;;;;;;;;;;5036012;28;20501;-81
2022/09/11 02:07:13;;;;;;;2.25;1.35;;;;;;;;;;5038860;28;20088;-80
2022/09/11 02:09:50;;;;;;;2.03;1.30;;;;;;;;;;4957457;28;20031;-81
2022/09/11 02:12:19;;;;;;;2.20;1.50;;;;;;;;;;4963181;28;20030;-80
2022/09/11 02:14:49;;;;;;;2.08;1.88;;;;;;;;;;5006951;28;20047;-80
2022/09/11 02:17:40;;;;;;;5.13;2.08;;;;;;;;;;5032546;28;20043;-81
2022/09/11 02:20:08;;;;;;;2.75;2.25;;;;;;;;;;5033086;28;21050;-80
2022/09/11 02:22:33;;;;;;;3.22;2.28;;;;;;;;;;5038085;28;20040;-81
2022/09/11 02:25:01;;;;;;;3.90;2.40;;;;;;;;;;5018826;28;20040;-81
2022/09/11 02:27:27;;;;;;;5.75;2.40;;;;;;;;;;5043692;28;20051;-83
2022/09/11 02:29:55;;;;;;;3.97;2.60;;;;;;;;;;5044015;28;20041;-81
2022/09/11 02:32:21;;;;;;;6.35;2.55;;;;;;;;;;5045681;28;20037;-81
2022/09/11 02:34:49;;;;;;;4.38;2.28;;;;;;;;;;5037569;28;20084;-81
2022/09/11 02:37:27;;;;;;;2.63;2.42;;;;;;;;;;5037888;28;20439;-81
2022/09/11 02:39:59;;;;;;;8.88;2.60;;;;;;;;;;5040214;28;20112;-81
2022/09/11 02:42:43;;;;;;;4.10;2.88;;;;;;;;;;5041702;28;20390;-81
2022/09/11 02:45:46;;;;;;;6.13;2.60;;;;;;;;;;5019241;28;20415;-81
2022/09/11 02:48:21;;;;;;;3.42;2.10;;;;;;;;;;5021496;28;20053;-81
2022/09/11 02:50:55;;;;;;;3.45;2.15;;;;;;;;;;5034233;28;20030;-79
2022/09/11 02:53:32;;;;;;;2.30;2.10;;;;;;;;;;5033415;28;20021;-78
2022/09/11 02:56:36;;;;;;;7.38;2.50;;;;;;;;;;5040618;28;20037;-80
2022/09/11 02:59:08;;;;;;;4.38;2.22;;;;;;;;;;5439710;22;20076;-82
2022/09/11 03:01:54;;;;;;;4.55;2.45;;;;;;;;;;5029035;28;20037;-81
2022/09/11 03:04:23;;;;;;;3.80;2.40;;;;;;;;;;5027049;28;20108;-81
2022/09/11 03:06:49;;;;;;;4.25;2.40;;;;;;;;;;5005666;28;20037;-81
2022/09/11 03:09:16;;;;;;;4.35;2.40;;;;;;;;;;5035256;28;20027;-80
2022/09/11 03:11:43;;;;;;;4.82;2.67;;;;;;;;;;5028833;28;20503;-81
2022/09/11 03:14:08;;;;;;;4.13;2.85;;;;;;;;;;5040311;28;20029;-81
2022/09/11 03:16:35;;;;;;;5.47;2.88;;;;;;;;;;5039985;28;20048;-81
2022/09/11 03:19:01;;;;;;;5.75;2.55;;;;;;;;;;5038787;28;20033;-81
2022/09/11 03:21:26;;;;;;;5.45;2.75;;;;;;;;;;5019832;28;20379;-80
2022/09/11 03:23:52;;;;;;;4.43;2.25;;;;;;;;;;5035400;28;20024;-80
2022/09/11 03:26:17;;;;;;;4.63;3.10;;;;;;;;;;5029089;28;20702;-80
2022/09/11 03:28:43;;;;;;;5.68;2.92;;;;;;;;;;5028184;28;20029;-80
2022/09/11 03:31:09;;;;;;;3.40;2.45;;;;;;;;;;5026984;28;20029;-80
2022/09/11 03:33:34;;;;;;;4.90;2.50;;;;;;;;;;5013542;28;20316;-80
2022/09/11 03:36:00;;;;;;;5.13;3.28;;;;;;;;;;5029772;28;20538;-79
2022/09/11 03:38:25;;;;;;;7.50;3.17;;;;;;;;;;5028145;28;20021;-80
2022/09/11 03:40:50;;;;;;;6.50;3.75;;;;;;;;;;5020380;28;20042;-80
2022/09/11 03:43:16;;;;;;;4.20;2.80;;;;;;;;;;5029715;28;20144;-80
2022/09/11 03:45:43;;;;;;;4.00;2.92;;;;;;;;;;5007254;28;20399;-80
2022/09/11 03:48:09;;;;;;;7.03;3.13;;;;;;;;;;5023916;28;20021;-80
2022/09/11 03:50:34;;;;;;;6.00;2.90;;;;;;;;;;5025378;28;20025;-80
2022/09/11 03:52:59;;;;;;;3.72;2.95;;;;;;;;;;5031572;28;20427;-80
2022/09/11 03:55:25;;;;;;;6.32;3.00;;;;;;;;;;5028564;28;20472;-80
2022/09/11 03:57:50;;;;;;;4.30;3.13;;;;;;;;;;5022948;28;20030;-80
2022/09/11 04:00:16;;;;;;;4.13;2.72;;;;;;;;;;5026352;28;20064;-80
2022/09/11 04:02:41;;;;;;;10.38;2.88;;;;;;;;;;5027891;28;20473;-80
2022/09/11 04:05:07;;;;;;;8.90;2.95;;;;;;;;;;5035895;28;20033;-80
2022/09/11 04:07:33;;;;;;;5.00;2.92;;;;;;;;;;5029514;28;20024;-80
2022/09/11 04:09:59;;;;;;;5.13;3.20;;;;;;;;;;5035869;28;20025;-80
2022/09/11 04:12:24;;;;;;;7.03;2.90;;;;;;;;;;5022458;28;20024;-80
2022/09/11 04:14:50;;;;;;;3.47;2.72;;;;;;;;;;5027154;28;20389;-78
2022/09/11 04:17:16;;;;;;;5.53;2.88;;;;;;;;;;5033423;28;20025;-80
2022/09/11 04:19:41;;;;;;;5.28;2.90;;;;;;;;;;5029371;28;20036;-81
2022/09/11 04:22:06;;;;;;;4.65;3.05;;;;;;;;;;5031771;28;20107;-79
2022/09/11 04:24:32;;;;;;;4.78;3.38;;;;;;;;;;5025373;28;20112;-80
2022/09/11 04:26:59;;;;;;;7.65;3.45;;;;;;;;;;5040579;28;20033;-79
2022/09/11 04:29:25;;;;;;;3.72;3.30;;;;;;;;;;5030105;28;20055;-80
2022/09/11 04:31:50;;;;;;;4.82;3.28;;;;;;;;;;5037307;28;20022;-81
2022/09/11 04:34:16;;;;;;;5.22;3.42;;;;;;;;;;5060603;28;20013;-81
2022/09/11 04:36:42;;;;;;;8.40;3.75;;;;;;;;;;5052319;28;20029;-80
2022/09/11 04:39:08;;;;;;;4.32;3.17;;;;;;;;;;5046198;28;20120;-79
2022/09/11 04:41:34;;;;;;;5.82;3.72;;;;;;;;;;5048381;28;20032;-80
2022/09/11 04:43:59;;;;;;;5.35;4.32;;;;;;;;;;5051451;28;20021;-80
2022/09/11 04:46:25;;;;;;;5.32;3.63;;;;;;;;;;5029666;28;20041;-80
2022/09/11 04:48:52;;;;;;;7.30;3.78;;;;;;;;;;5031684;28;20131;-80
2022/09/11 04:51:21;;;;;;;5.93;4.22;;;;;;;;;;5032174;28;20490;-81
2022/09/11 04:53:47;;;;;;;6.78;4.10;;;;;;;;;;5032462;28;20471;-80
2022/09/11 04:56:12;;;;;;;4.28;3.88;;;;;;;;;;5031264;28;20032;-81
2022/09/11 04:58:38;;;;;;;6.68;4.07;;;;;;;;;;5026529;28;20025;-80
2022/09/11 05:01:15;;;;;;;6.10;4.03;;;;;;;;;;5028253;28;20029;-79
2022/09/11 05:03:44;;;;;;;6.15;4.00;;;;;;;;;;5032093;28;20018;-81
2022/09/11 05:06:14;;;;;;;5.72;4.00;;;;;;;;;;5030508;28;20104;-80
2022/09/11 05:08:39;;;;;;;5.47;4.20;;;;;;;;;;5031358;28;20030;-79
2022/09/11 05:11:05;;;;;;;4.88;3.72;;;;;;;;;;5031863;28;20029;-80
2022/09/11 05:13:32;;;;;;;7.53;4.38;;;;;;;;;;5029089;28;20390;-80
2022/09/11 05:16:04;;;;;;;5.63;3.97;;;;;;;;;;5030326;28;20876;-80
2022/09/11 05:18:30;;;;;;;7.10;4.60;;;;;;;;;;5030952;28;20021;-80
2022/09/11 05:21:00;;;;;;;10.02;4.43;;;;;;;;;;5029370;28;20043;-81
2022/09/11 05:23:26;;;;;;;5.65;4.18;;;;;;;;;;5015004;28;20033;-80
2022/09/11 05:25:56;;;;;;;9.25;4.45;;;;;;;;;;5012667;28;20033;-80
2022/09/11 05:28:22;;;;;;;8.88;4.35;;;;;;;;;;5031742;28;20549;-79
2022/09/11 05:30:48;;;;;;;7.40;4.30;;;;;;;;;;5033933;28;20085;-80
2022/09/11 05:33:13;;;;;;;5.95;3.72;;;;;;;;;;5030018;28;20030;-79
2022/09/11 05:35:39;;;;;;;6.28;3.83;;;;;;;;;;5030449;28;20025;-81
2022/09/11 05:38:05;;;;;;;8.63;4.80;;;;;;;;;;5029378;28;20022;-79
2022/09/11 05:40:30;;;;;;;8.18;4.40;;;;;;;;;;5010197;28;20431;-80
2022/09/11 05:42:56;;;;;;;6.13;3.85;;;;;;;;;;5034039;28;20025;-79
2022/09/11 05:45:21;;;;;;;9.02;4.53;;;;;;;;;;5033597;28;20046;-80
2022/09/11 05:47:46;;;;;;;8.05;4.53;;;;;;;;;;5001318;28;20029;-80
2022/09/11 05:50:13;;;;;;;5.70;4.28;;;;;;;;;;5025263;28;20438;-80
2022/09/11 05:52:39;;;;;;;8.40;4.32;;;;;;;;;;5023947;28;20018;-80
2022/09/11 05:55:04;;;;;;;7.65;4.32;;;;;;;;;;5029098;28;20033;-80
2022/09/11 05:57:29;;;;;;;5.15;4.07;;;;;;;;;;5023468;28;20032;-79
2022/09/11 05:59:55;;;;;;;5.15;4.47;;;;;;;;;;5026180;28;20046;-80
2022/09/11 06:02:20;;;;;;;7.30;4.57;;;;;;;;;;5022971;28;20089;-80
2022/09/11 06:04:46;;;;;;;8.95;4.28;;;;;;;;;;5021152;28;20044;-80
2022/09/11 06:07:11;;;;;;;5.07;4.22;;;;;;;;;;5025345;28;20021;-79
2022/09/11 06:09:36;;;;;;;8.23;4.82;;;;;;;;;;5020945;28;20112;-79
2022/09/11 06:12:02;;;;;;;6.03;4.00;;;;;;;;;;5026494;28;20083;-80
2022/09/11 06:14:27;;;;;;;5.80;4.35;;;;;;;;;;5023335;28;20025;-79
2022/09/11 06:16:56;;;;;;;7.35;4.13;;;;;;;;;;5005037;28;20057;-78
2022/09/11 06:19:21;;;;;;;5.80;4.20;;;;;;;;;;5024820;28;20025;-80
2022/09/11 06:21:47;;;;;;;7.57;4.95;;;;;;;;;;5018274;28;20036;-80
2022/09/11 06:24:13;;;;;;;8.10;4.40;;;;;;;;;;5026339;28;20466;-80
2022/09/11 06:26:39;;;;;;;8.30;4.20;;;;;;;;;;5029208;28;20108;-80
2022/09/11 06:29:04;;;;;;;6.78;4.30;;;;;;;;;;5025740;28;20113;-80
2022/09/11 06:31:29;;;;;;;8.73;4.07;;;;;;;;;;5027664;28;20037;-78
2022/09/11 06:33:55;;;;;;;5.57;3.65;;;;;;;;;;5021469;28;20022;-79
2022/09/11 06:36:28;;;;;;;7.68;4.63;;;;;;;;;;5004890;28;20065;-80
2022/09/11 06:38:56;;;;;;;7.05;4.15;;;;;;;;;;5027594;28;20033;-80
2022/09/11 06:41:23;;;;;;;6.63;4.88;;;;;;;;;;5026861;28;20534;-80
2022/09/11 06:43:49;;;;;;;7.32;4.60;;;;;;;;;;5026811;28;20151;-80
2022/09/11 06:46:19;;;;;;;7.78;4.65;;;;;;;;;;5027405;28;20120;-80
2022/09/11 06:48:46;;;;;;;7.82;4.60;;;;;;;;;;5028277;28;20116;-81
2022/09/11 06:51:13;;;;;;;7.57;4.60;;;;;;;;;;5018392;28;20040;-80
2022/09/11 06:53:40;;;;;;;6.65;4.53;;;;;;;;;;5028512;28;20049;-79
2022/09/11 06:56:08;;;;;;;9.38;4.93;;;;;;;;;;5004521;28;20021;-80
2022/09/11 06:58:34;;;;;;;5.72;4.20;;;;;;;;;;5028619;28;20368;-79
2022/09/11 07:01:03;;;;;;;7.18;4.47;;;;;;;;;;5021518;28;20116;-78
2022/09/11 07:03:29;;;;;;;6.13;4.10;;;;;;;;;;5043321;28;20085;-77
2022/09/11 07:05:55;;;;;;;7.40;4.45;;;;;;;;;;5048314;28;20053;-78
2022/09/11 07:08:20;;;;;;;8.48;4.63;;;;;;;;;;5029710;28;20029;-79
2022/09/11 07:10:45;;;;;;;10.55;4.63;;;;;;;;;;5020956;28;20029;-79
2022/09/11 07:13:11;;;;;;;8.15;4.40;;;;;;;;;;5032567;28;20017;-86
2022/09/11 07:15:36;;;;;;;8.18;4.30;;;;;;;;;;5031029;28;20026;-85
2022/09/11 07:18:02;;;;;;;6.97;4.70;;;;;;;;;;5014585;28;20116;-81
2022/09/11 07:20:27;;;;;;;5.40;4.30;;;;;;;;;;5010124;28;20025;-81
2022/09/11 07:22:53;;;;;;;6.32;4.10;;;;;;;;;;5013195;28;20030;-81
2022/09/11 07:25:19;;;;;;;9.30;5.22;;;;;;;;;;5004753;28;20506;-81
2022/09/11 07:27:44;;;;;;;7.45;4.53;;;;;;;;;;5012954;28;20040;-81
2022/09/11 07:30:10;;;;;;;10.02;5.07;;;;;;;;;;5014613;28;20124;-82
2022/09/11 07:32:36;;;;;;;9.70;4.28;;;;;;;;;;5012283;28;20028;-83
2022/09/11 07:35:03;;;;;;;9.20;4.75;;;;;;;;;;5035771;28;20105;-84
2022/09/11 07:37:28;;;;;;;5.22;3.85;;;;;;;;;;5009806;28;20030;-84
2022/09/11 07:39:54;;;;;;;6.05;4.55;;;;;;;;;;5011914;28;20025;-83
2022/09/11 07:42:19;;;;;;;8.77;4.78;;;;;;;;;;5039386;28;20026;-84
2022/09/11 07:44:44;;;;;;;8.40;4.85;;;;;;;;;;5018223;28;20038;-83
2022/09/11 07:47:10;;;;;;;10.55;4.43;;;;;;;;;;5036272;28;20063;-83
2022/09/11 07:49:35;;;;;;;7.57;4.53;;;;;;;;;;5026722;28;20045;-82
2022/09/11 07:52:02;;;;;;;6.35;4.75;;;;;;;;;;5029072;28;20392;-83
2022/09/11 07:54:28;;;;;;;9.55;4.90;;;;;;;;;;5009837;28;20076;-82
2022/09/11 07:56:54;;;;;;;8.70;4.85;;;;;;;;;;5022317;28;20492;-83
2022/09/11 07:59:21;;;;;;;8.77;5.07;;;;;;;;;;5026905;28;20082;-83
2022/09/11 08:01:48;;;;;;;7.05;4.70;;;;;;;;;;5031533;28;20029;-83
2022/09/11 08:04:14;;;;;;;6.95;4.25;;;;;;;;;;5033400;28;20021;-83
2022/09/11 08:06:39;;;;;;;5.60;4.50;;;;;;;;;;5008049;28;20096;-83
2022/09/11 08:09:08;;;;;;;6.22;4.30;;;;;;;;;;5038691;28;20029;-83
2022/09/11 08:11:54;;;;;;;7.13;4.90;;;;;;;;;;5035732;28;20167;-84
2022/09/11 08:14:21;;;;;;;6.65;4.72;;;;;;;;;;5004982;28;20075;-82
2022/09/11 08:16:47;;;;;;;8.75;5.70;;;;;;;;;;5007274;28;20030;-83
2022/09/11 08:19:18;;;;;;;6.03;4.57;;;;;;;;;;5031485;28;20020;-83
2022/09/11 08:21:43;;;;;;;7.20;4.57;;;;;;;;;;5029908;28;20021;-83
2022/09/11 08:24:11;;;;;;;5.50;4.15;;;;;;;;;;5015590;28;20047;-83
2022/09/11 08:26:37;;;;;;;8.95;4.80;;;;;;;;;;5045511;28;20064;-82
2022/09/11 08:29:02;;;;;;;5.13;4.30;;;;;;;;;;5043024;28;20022;-81
2022/09/11 08:31:28;;;;;;;5.00;4.05;;;;;;;;;;5039373;28;20033;-83
2022/09/11 08:33:54;;;;;;;7.50;4.25;;;;;;;;;;5034876;28;20105;-83
2022/09/11 08:36:20;;;;;;;6.45;4.50;;;;;;;;;;5041294;28;20025;-83
2022/09/11 08:38:46;;;;;;;5.90;4.55;;;;;;;;;;5039381;28;20083;-81
2022/09/11 08:41:24;;;;;;;5.53;4.80;;;;;;;;;;5041544;28;20045;-82
2022/09/11 08:43:55;;;;;;;6.18;4.60;;;;;;;;;;5019369;28;20029;-81
2022/09/11 08:46:24;;;;;;;5.63;4.38;;;;;;;;;;5032797;28;20087;-83
2022/09/11 08:49:00;;;;;;;7.88;4.40;;;;;;;;;;5020589;28;20033;-80
2022/09/11 08:51:26;;;;;;;7.03;4.20;;;;;;;;;;5022525;28;20113;-80
2022/09/11 08:53:54;;;;;;;6.35;4.20;;;;;;;;;;5024654;28;20049;-84
2022/09/11 08:56:22;;;;;;;7.35;4.65;;;;;;;;;;5035141;28;20214;-82
2022/09/11 08:59:02;;;;;;;5.18;4.18;;;;;;;;;;5036936;28;20021;-79
2022/09/11 09:01:36;;;;;;;7.13;4.40;;;;;;;;;;5055209;28;20055;-82
2022/09/11 09:04:20;;;;;;;7.65;4.53;;;;;;;;;;5037953;28;20069;-84
2022/09/11 09:07:04;;;;;;;6.85;3.53;;;;;;;;;;5038826;28;20033;-80
2022/09/11 09:09:45;;;;;;;4.80;3.28;;;;;;;;;;5038049;28;20021;-83
2022/09/11 09:12:28;;;;;;;6.90;3.85;;;;;;;;;;5055829;28;20284;-84
2022/09/11 09:15:00;;;;;;;9.75;3.90;;;;;;;;;;5039359;28;20036;-84
2022/09/11 09:17:36;;;;;;;7.18;4.40;;;;;;;;;;5054889;28;20030;-82
2022/09/11 09:20:10;;;;;;;5.32;3.75;;;;;;;;;;5038644;28;20087;-83
2022/09/11 09:22:43;;;;;;;4.00;3.17;;;;;;;;;;5036762;28;20022;-84
2022/09/11 09:25:12;;;;;;;4.65;3.67;;;;;;;;;;5034822;28;20033;-82
2022/09/11 09:27:44;;;;;;;4.95;3.50;;;;;;;;;;5033780;28;20104;-83
2022/09/11 09:30:17;;;;;;;;;;;;;;;;;;5018942;28;20053;-82
2022/09/11 09:32:56;;;;;;;4.35;3.60;;;;;;;;;;5020201;28;20271;-84
2022/09/11 09:35:43;;;;;;;6.18;3.70;;;;;;;;;;5019755;28;20213;-83
2022/09/11 09:38:12;;;;;;;7.00;4.15;;;;;;;;;;5020356;28;20119;-82
2022/09/11 09:40:54;;;;;;;6.88;3.72;;;;;;;;;;5037686;28;20053;-83
2022/09/11 09:43:31;;;;;;;6.13;3.88;;;;;;;;;;5033318;28;20416;-83
2022/09/11 09:46:03;;;;;;;9.18;4.10;;;;;;;;;;5031410;28;20440;-83
2022/09/11 09:48:35;;;;;;;5.75;4.35;;;;;;;;;;5037316;28;20087;-83
2022/09/11 09:51:02;;;;;;;5.10;4.32;;;;;;;;;;5026089;28;20033;-82
2022/09/11 09:53:49;;;;;;;5.45;4.10;;;;;;;;;;5037028;28;20498;-82
2022/09/11 09:56:17;;;;;;;7.28;4.55;;;;;;;;;;5010965;28;20025;-83
2022/09/11 09:59:08;;;;;;;6.15;4.28;;;;;;;;;;5038121;28;20025;-83
2022/09/11 10:01:42;;;;;;;6.70;3.90;;;;;;;;;;5020736;28;20049;-84
2022/09/11 10:04:20;;;;;;;6.20;4.20;;;;;;;;;;5028695;28;20043;-83
2022/09/11 10:06:48;;;;;;;6.18;4.00;;;;;;;;;;5037168;28;20088;-82
2022/09/11 10:09:27;;;;;;;5.40;4.30;;;;;;;;;;5019823;28;20017;-83
2022/09/11 10:12:01;;;;;;;7.22;4.18;;;;;;;;;;5037649;28;20040;-83
2022/09/11 10:14:31;;;;;;;4.97;3.67;;;;;;;;;;5011619;28;20399;-84
2022/09/11 10:16:57;;;;;;;8.35;4.20;;;;;;;;;;5017404;28;20053;-82
2022/09/11 10:19:38;;;;;;;5.72;4.47;;;;;;;;;;5014346;28;20395;-83
2022/09/11 10:22:19;;;;;;;9.27;4.77;;;;;;;;;;5018580;28;20025;-82
2022/09/11 10:25:01;;;;;;;11.55;4.88;;;;;;;;;;5034663;28;20488;-83
2022/09/11 10:27:34;;;;;;;4.83;3.87;;;;;;;;;;5035957;28;20060;-83
2022/09/11 10:30:01;;;;;;;9.27;4.40;;;;;;;;;;5035275;28;20030;-82
2022/09/11 10:32:27;;;;;;;5.63;3.95;;;;;;;;;;5021153;28;20021;-84
2022/09/11 10:34:54;;;;;;;5.57;3.92;;;;;;;;;;5035686;28;20105;-82
2022/09/11 10:37:28;;;;;;;5.30;3.85;;;;;;;;;;5032025;28;20036;-83
2022/09/11 10:40:03;;;;;;;6.13;4.03;;;;;;;;;;5018572;28;20025;-83
2022/09/11 10:42:30;;;;;;;6.00;3.95;;;;;;;;;;5036649;28;20048;-81
2022/09/11 10:45:09;;;;;;;4.60;3.90;;;;;;;;;;5019102;28;20026;-83
2022/09/11 10:47:34;;;;;;;7.47;4.50;;;;;;;;;;5019961;28;20025;-82
2022/09/11 10:50:15;;;;;;;10.82;4.07;;;;;;;;;;5019437;28;20116;-83
2022/09/11 10:52:56;;;;;;;9.73;4.37;;;;;;;;;;5010323;28;20013;-83
2022/09/11 10:55:22;;;;;;;4.65;4.07;;;;;;;;;;5016287;28;20266;-83
2022/09/11 10:57:52;;;;;;;5.70;3.90;;;;;;;;;;5039188;28;20033;-83
2022/09/11 11:00:20;;;;;;;6.57;3.42;;;;;;;;;;5038467;28;20467;-84
2022/09/11 11:03:11;;;;;;;5.60;3.80;;;;;;;;;;5014214;28;20467;-83
2022/09/11 11:06:05;;;;;;;6.97;3.50;;;;;;;;;;5037674;28;20176;-83
2022/09/11 11:08:57;;;;;;;6.45;3.58;;;;;;;;;;5034184;28;20022;-83
2022/09/11 11:11:23;;;;;;;4.20;3.60;;;;;;;;;;5022469;28;20116;-83
2022/09/11 11:14:22;;;;;;;5.13;3.88;;;;;;;;;;5033385;28;20068;-83
2022/09/11 11:17:17;;;;;;;6.03;4.13;;;;;;;;;;5032100;28;20117;-82
2022/09/11 11:20:11;;;;;;;5.95;4.20;;;;;;;;;;5032568;28;20065;-83
2022/09/11 11:23:10;;;;;;;8.20;4.50;;;;;;;;;;5017221;28;20122;-82
2022/09/11 11:25:55;;;;;;;6.20;4.05;;;;;;;;;;5029889;28;20275;-82
2022/09/11 11:28:23;;;;;;;5.63;4.10;;;;;;;;;;5021349;28;20026;-82
2022/09/11 11:31:16;;;;;;;5.20;4.07;;;;;;;;;;5026506;28;20052;-83
2022/09/11 11:34:18;;;;;;;4.75;3.63;;;;;;;;;;5027730;28;20087;-81
2022/09/11 11:36:53;;;;;;;8.13;4.80;;;;;;;;;;5023386;28;20392;-82
2022/09/11 11:39:27;;;;;;;5.70;4.47;;;;;;;;;;5036862;28;20030;-81
2022/09/11 11:42:04;;;;;;;4.95;3.95;;;;;;;;;;5036260;28;20025;-82
2022/09/11 11:44:41;;;;;;;3.70;3.10;;;;;;;;;;5048206;28;20117;-81
2022/09/11 11:47:10;;;;;;;5.28;3.58;;;;;;;;;;5046252;28;20025;-81
2022/09/11 11:49:57;;;;;;;3.72;3.13;;;;;;;;;;5038853;28;20030;-83
2022/09/11 11:52:31;;;;;;;5.93;3.60;;;;;;;;;;5030728;28;20018;-83
2022/09/11 11:55:22;;;;;;;7.10;3.10;;;;;;;;;;5027069;28;20060;-83
2022/09/11 11:58:03;;;;;;;4.60;3.30;;;;;;;;;;5023694;28;20056;-83
2022/09/11 12:00:34;;;;;;;4.03;3.55;;;;;;;;;;5025145;28;20022;-83
2022/09/11 12:03:11;;;;;;;5.35;3.67;;;;;;;;;;5022775;28;21850;-83
2022/09/11 12:05:37;;;;;;;6.63;3.22;;;;;;;;;;5022635;28;20033;-83
2022/09/11 12:08:03;;;;;;;4.55;3.88;;;;;;;;;;5024980;28;20040;-82
2022/09/11 12:10:33;;;;;;;4.38;2.92;;;;;;;;;;5021389;28;20026;-82
2022/09/11 12:13:01;;;;;;;5.25;3.40;;;;;;;;;;5006716;28;20518;-83
2022/09/11 12:15:30;;;;;;;4.88;3.60;;;;;;;;;;5009404;28;20079;-82
2022/09/11 12:18:17;;;;;;;4.90;3.33;;;;;;;;;;5024205;28;20053;-83
2022/09/11 12:20:44;;;;;;;6.88;3.33;;;;;;;;;;5033477;28;20013;-81
2022/09/11 12:23:28;;;;;;;4.28;3.20;;;;;;;;;;5031995;28;20506;-81
2022/09/11 12:26:09;;;;;;;5.72;4.63;;;;;;;;;;5034630;28;20033;-81
2022/09/11 12:28:34;;;;;;;4.90;3.85;;;;;;;;;;5038140;28;20498;-81
2022/09/11 12:31:06;;;;;;;5.22;3.38;;;;;;;;;;5041385;28;20030;-82
2022/09/11 12:33:50;;;;;;;5.72;3.80;;;;;;;;;;5012857;28;20041;-83
2022/09/11 12:36:17;;;;;;;4.70;3.53;;;;;;;;;;5017066;28;20029;-82
2022/09/11 12:38:55;;;;;;;5.22;3.42;;;;;;;;;;5027785;28;20076;-82
2022/09/11 12:41:33;;;;;;;5.55;3.40;;;;;;;;;;5037071;28;20025;-83
2022/09/11 12:43:59;;;;;;;5.00;3.60;;;;;;;;;;5039769;28;20026;-82
2022/09/11 12:46:26;;;;;;;6.68;3.90;;;;;;;;;;5040020;28;20037;-82
2022/09/11 12:48:54;;;;;;;6.07;3.60;;;;;;;;;;5010934;28;20049;-82
2022/09/11 12:51:38;;;;;;;5.78;3.67;;;;;;;;;;5033630;28;20025;-83
2022/09/11 12:54:12;;;;;;;3.75;3.15;;;;;;;;;;5051464;28;20026;-81
2022/09/11 12:56:45;;;;;;;3.80;3.40;;;;;;;;;;5030991;28;20060;-81
2022/09/11 12:59:25;;;;;;;5.68;3.50;;;;;;;;;;5046563;28;20025;-82
2022/09/11 13:01:51;;;;;;;4.72;3.10;;;;;;;;;;5044874;28;20021;-82
2022/09/11 13:04:21;;;;;;;4.00;3.28;;;;;;;;;;5028456;28;20025;-83
2022/09/11 13:06:54;;;;;;;5.43;3.25;;;;;;;;;;5034550;28;20140;-82
2022/09/11 13:09:29;;;;;;;5.38;3.70;;;;;;;;;;5053757;28;20081;-82
2022/09/11 13:12:16;;;;;;;3.75;3.17;;;;;;;;;;5043591;28;20037;-85
2022/09/11 13:14:51;;;;;;;5.78;3.67;;;;;;;;;;4993424;28;20029;-80
2022/09/11 13:17:32;;;;;;;3.78;3.38;;;;;;;;;;5040683;28;20049;-79
2022/09/11 13:20:07;;;;;;;5.72;4.15;;;;;;;;;;5040874;28;20029;-81
2022/09/11 13:22:34;;;;;;;4.47;3.78;;;;;;;;;;5036418;28;20087;-79
2022/09/11 13:25:20;;;;;;;4.95;3.75;;;;;;;;;;5041090;28;20025;-80
2022/09/11 13:27:52;;;;;;;6.63;3.65;;;;;;;;;;5007947;28;20053;-80
2022/09/11 13:30:20;;;;;;;4.10;3.20;;;;;;;;;;5023159;28;20021;-81
2022/09/11 13:32:49;;;;;;;7.55;3.60;;;;;;;;;;5036548;28;20138;-81
2022/09/11 13:35:23;;;;;;;9.73;4.00;;;;;;;;;;5031982;28;20051;-80
2022/09/11 13:37:58;;;;;;;4.70;3.35;;;;;;;;;;5015867;28;20028;-80
2022/09/11 13:40:40;;;;;;;3.85;3.38;;;;;;;;;;5013101;28;20082;-81
2022/09/11 13:43:06;;;;;;;7.25;4.13;;;;;;;;;;5032524;28;20037;-81
2022/09/11 13:45:32;;;;;;;5.90;3.75;;;;;;;;;;5023635;28;20388;-81
2022/09/11 13:47:58;;;;;;;3.60;3.30;;;;;;;;;;5014343;28;20040;-81
2022/09/11 13:50:24;;;;;;;5.35;3.63;;;;;;;;;;5017528;28;20400;-80
2022/09/11 13:52:52;;;;;;;6.07;3.38;;;;;;;;;;5032030;28;20210;-80
2022/09/11 13:55:25;;;;;;;4.38;3.63;;;;;;;;;;5012071;28;20017;-81
2022/09/11 13:57:52;;;;;;;6.47;3.55;;;;;;;;;;5010870;28;20081;-81
2022/09/11 14:00:36;;;;;;;5.18;3.42;;;;;;;;;;5009562;28;20029;-80
2022/09/11 14:03:05;;;;;;;5.07;3.70;;;;;;;;;;5028466;28;20045;-81
2022/09/11 14:05:31;;;;;;;4.50;3.53;;;;;;;;;;5028120;28;20484;-80
2022/09/11 14:08:20;;;;;;;4.15;3.15;;;;;;;;;;5031349;28;20073;-81
2022/09/11 14:10:48;;;;;;;5.00;3.72;;;;;;;;;;5015354;28;21036;-80
2022/09/11 14:13:23;;;;;;;3.53;3.00;;;;;;;;;;5008406;28;20164;-82
2022/09/11 14:15:52;;;;;;;3.47;3.08;;;;;;;;;;5006663;28;20162;-81
2022/09/11 14:18:36;;;;;;;4.60;3.42;;;;;;;;;;5011166;28;20108;-79
2022/09/11 14:21:12;;;;;;;5.80;3.58;;;;;;;;;;5012718;28;20037;-80
2022/09/11 14:23:47;;;;;;;4.60;3.40;;;;;;;;;;5010938;28;20033;-80
2022/09/11 14:26:17;;;;;;;4.93;3.10;;;;;;;;;;5011442;28;20455;-80
2022/09/11 14:28:49;;;;;;;5.93;2.78;;;;;;;;;;5012404;28;20025;-80
2022/09/11 14:31:26;;;;;;;;;;;;;;;;;;5025985;28;20112;-79
2022/09/11 14:34:10;;;;;;;5.10;2.90;;;;;;;;;;5015208;28;19917;-80
2022/09/11 14:36:42;;;;;;;2.80;2.53;;;;;;;;;;5012788;28;20942;-83
2022/09/11 14:39:30;;;;;;;5.93;3.00;;;;;;;;;;5012912;28;21700;-84
2022/09/11 14:42:03;;;;;;;3.58;2.50;;;;;;;;;;5011782;28;21007;-79
2022/09/11 14:44:29;;;;;;;4.28;2.85;;;;;;;;;;5018205;28;20057;-79
2022/09/11 14:46:56;;;;;;;3.33;2.97;;;;;;;;;;5015254;28;20038;-79
2022/09/11 14:49:22;;;;;;;5.07;3.15;;;;;;;;;;4999947;28;20033;-80
2022/09/11 14:51:59;;;;;;;4.50;2.92;;;;;;;;;;5019185;28;20091;-78
2022/09/11 14:54:29;;;;;;;2.85;2.55;;;;;;;;;;5018477;28;20025;-80
2022/09/11 14:56:57;;;;;;;9.77;4.68;;;;;;;;;;5017383;28;20075;-80
2022/09/11 14:59:23;;;;;;;2.65;2.40;;;;;;;;;;5001947;28;20025;-80
2022/09/11 15:01:50;;;;;;;3.75;2.40;;;;;;;;;;5016110;28;20102;-79
2022/09/11 15:04:19;;;;;;;3.53;2.63;;;;;;;;;;5013395;28;20156;-79
2022/09/11 15:06:47;;;;;;;6.70;2.85;;;;;;;;;;5011782;28;20099;-80